Time;durP1;ratioP1;P1;durP2;ratioP2;P2;SDS_P1;SDS_P2;PMS_P1;PMS_P2;Temp;Humidity;BMP_temperature;BMP_pressure;BME280_temperature;BME280_humidity;BME280_pressure;Samples;Min_cycle;Max_cycle;Signal;HPM_P1;HPM_P2
2020/12/03 00:01:09;;;;;;;22.22;15.13;;;;;;;0.27;82.05;100347.41;1795909;80;21072;-61
2020/12/03 00:03:48;;;;;;;18.87;13.80;;;;;;;0.25;81.97;100350.78;1795977;80;21584;-61
2020/12/03 00:06:32;;;;;;;22.05;14.85;;;;;;;0.25;82.01;100349.08;1796362;79;21485;-62
2020/12/03 00:09:07;;;;;;;17.87;13.15;;;;;;;0.27;82.01;100348.69;1796290;79;21156;-62
2020/12/03 00:11:38;;;;;;;19.60;13.65;;;;;;;0.26;81.87;100346.97;1796345;79;21208;-62
2020/12/03 00:14:06;;;;;;;21.55;13.68;;;;;;;0.28;81.90;100353.39;1764513;81;21067;-62
2020/12/03 00:16:34;;;;;;;21.17;14.20;;;;;;;0.23;81.83;100344.78;1795983;80;21539;-62
2020/12/03 00:19:03;;;;;;;18.42;13.75;;;;;;;0.21;82.07;100346.03;1795944;80;21122;-62
2020/12/03 00:21:44;;;;;;;22.58;15.65;;;;;;;0.23;82.10;100345.64;1795798;80;21150;-62
2020/12/03 00:24:16;;;;;;;18.73;13.28;;;;;;;0.25;81.97;100345.66;1795955;80;21361;-62
2020/12/03 00:26:44;;;;;;;19.87;14.50;;;;;;;0.24;81.98;100340.97;1796163;80;21055;-62
2020/12/03 00:29:12;;;;;;;27.15;18.62;;;;;;;0.19;82.12;100337.51;1795916;80;21170;-63
2020/12/03 00:31:43;;;;;;;22.80;14.90;;;;;;;0.22;82.18;100342.64;1795915;80;21506;-62
2020/12/03 00:34:10;;;;;;;25.55;18.00;;;;;;;0.21;82.15;100347.73;1795959;80;21090;-63
2020/12/03 00:36:39;;;;;;;19.50;13.48;;;;;;;0.23;82.19;100337.11;1795919;80;21192;-63
2020/12/03 00:39:10;;;;;;;20.85;15.35;;;;;;;0.24;82.18;100337.55;1795995;80;21499;-62
2020/12/03 00:41:37;;;;;;;18.12;13.32;;;;;;;0.26;82.32;100328.20;1795983;80;21067;-62
2020/12/03 00:44:05;;;;;;;18.92;12.85;;;;;;;0.30;82.22;100329.97;1793241;80;21579;-62
2020/12/03 00:46:34;;;;;;;22.15;14.38;;;;;;;0.27;82.01;100333.75;1795955;80;21126;-63
2020/12/03 00:49:02;;;;;;;24.27;15.05;;;;;;;0.23;82.17;100330.70;1795941;80;21428;-63
2020/12/03 00:51:30;;;;;;;18.62;13.38;;;;;;;0.27;82.33;100323.52;1795937;80;21650;-63
2020/12/03 00:53:59;;;;;;;18.57;13.88;;;;;;;0.28;82.23;100323.97;1795878;80;21495;-63
2020/12/03 00:56:27;;;;;;;23.57;14.25;;;;;;;0.25;82.12;100318.80;1796040;80;21482;-63
2020/12/03 00:58:55;;;;;;;18.00;12.23;;;;;;;0.23;82.21;100322.62;1795956;80;21122;-63
2020/12/03 01:01:23;;;;;;;16.75;12.93;;;;;;;0.24;82.15;100323.05;1795891;80;21827;-63
2020/12/03 01:03:51;;;;;;;20.52;13.00;;;;;;;0.22;82.12;100324.73;1762526;80;21759;-63
2020/12/03 01:06:19;;;;;;;19.32;12.70;;;;;;;0.19;82.30;100320.88;1795911;80;21059;-63
2020/12/03 01:08:46;;;;;;;14.47;11.68;;;;;;;0.21;82.40;100318.31;1795913;80;21054;-63
2020/12/03 01:11:14;;;;;;;16.00;11.45;;;;;;;0.22;82.29;100305.96;1795929;80;21115;-62
2020/12/03 01:13:42;;;;;;;17.40;11.80;;;;;;;0.21;82.02;100317.89;1796036;80;22150;-62
2020/12/03 01:16:14;;;;;;;22.55;14.05;;;;;;;0.16;82.04;100323.39;1795876;80;21062;-63
2020/12/03 01:18:41;;;;;;;17.45;12.85;;;;;;;0.11;82.01;100317.34;1795931;80;21170;-62
2020/12/03 01:21:09;;;;;;;15.93;12.25;;;;;;;0.06;82.10;100317.69;1795846;80;21066;-63
2020/12/03 01:23:37;;;;;;;16.25;12.40;;;;;;;0.04;82.29;100315.52;1790193;79;21052;-62
2020/12/03 01:26:06;;;;;;;14.98;12.18;;;;;;;0.06;82.33;100310.44;1790115;80;22246;-62
2020/12/03 01:28:33;;;;;;;17.75;13.60;;;;;;;0.04;82.45;100305.30;1789975;80;21547;-63
2020/12/03 01:31:03;;;;;;;19.12;14.25;;;;;;;0.08;82.52;100303.64;1789991;80;21047;-63
2020/12/03 01:33:30;;;;;;;19.50;13.45;;;;;;;0.09;82.47;100305.36;1790050;80;21523;-62
2020/12/03 01:35:58;;;;;;;18.23;12.70;;;;;;;0.10;82.43;100313.06;1790022;80;21039;-62
2020/12/03 01:38:26;;;;;;;17.40;13.05;;;;;;;0.11;82.36;100310.09;1790030;80;22037;-62
2020/12/03 01:40:54;;;;;;;17.15;12.82;;;;;;;0.06;82.23;100315.13;1789925;80;21158;-63
2020/12/03 01:43:22;;;;;;;15.05;12.00;;;;;;;0.06;82.37;100314.27;1790041;80;21575;-63
2020/12/03 01:45:59;;;;;;;15.20;12.37;;;;;;;0.09;82.41;100315.59;1790027;80;21047;-63
2020/12/03 01:48:44;;;;;;;18.23;12.18;;;;;;;0.10;82.37;100311.78;1790146;80;21063;-63
2020/12/03 01:51:23;;;;;;;18.37;13.35;;;;;;;0.08;82.43;100307.48;1790043;80;21360;-63
2020/12/03 01:53:54;;;;;;;17.48;12.53;;;;;;;0.10;82.64;100307.95;1789959;80;21150;-63
2020/12/03 01:57:01;;;;;;;15.83;12.88;;;;;;;0.15;82.44;100301.63;1790102;80;21138;-63
2020/12/03 02:02:24;;;;;;;15.90;12.35;;;;;;;0.09;82.58;100295.13;1718606;83;21643;-63
2020/12/03 02:05:15;;;;;;;16.45;12.50;;;;;;;0.10;82.60;100295.58;1695793;84;23416;-63
2020/12/03 02:07:43;;;;;;;14.87;12.43;;;;;;;0.12;82.55;100295.18;1721448;83;21095;-63
2020/12/03 02:10:14;;;;;;;15.55;12.03;;;;;;;0.10;82.43;100297.72;1721527;83;21100;-63
2020/12/03 02:12:42;;;;;;;17.55;13.30;;;;;;;0.08;82.56;100296.83;1721608;83;21095;-63
2020/12/03 02:15:10;;;;;;;15.08;11.40;;;;;;;0.07;82.60;100290.41;1721554;83;21155;-62
2020/12/03 02:17:38;;;;;;;19.92;11.43;;;;;;;0.06;82.69;100291.25;1721544;83;21212;-62
2020/12/03 02:20:10;;;;;;;13.53;10.72;;;;;;;0.06;82.72;100298.92;1721470;83;21099;-62
2020/12/03 02:22:38;;;;;;;17.80;11.88;;;;;;;0.06;82.72;100298.92;1721514;83;21195;-62
2020/12/03 02:25:06;;;;;;;16.77;12.40;;;;;;;0.04;82.84;100299.31;1721479;83;21092;-63
2020/12/03 02:27:33;;;;;;;14.43;11.63;;;;;;;0.02;82.90;100302.27;1721631;83;21480;-62
2020/12/03 02:30:05;;;;;;;18.77;12.55;;;;;;;0.00;82.98;100303.11;1721503;83;21308;-63
2020/12/03 02:32:33;;;;;;;15.88;10.78;;;;;;;0.02;83.00;100304.41;1721558;83;21112;-63
2020/12/03 02:35:03;;;;;;;17.32;12.70;;;;;;;0.03;83.01;100297.59;1719394;83;21568;-63
2020/12/03 02:37:31;;;;;;;18.70;12.63;;;;;;;-0.01;83.02;100295.44;1647225;87;21147;-63
2020/12/03 02:40:00;;;;;;;20.37;13.78;;;;;;;-0.01;83.10;100300.14;1674450;85;21261;-63
2020/12/03 02:42:28;;;;;;;19.52;13.15;;;;;;;0.00;83.11;100294.61;1647220;87;21222;-63
2020/12/03 02:44:57;;;;;;;20.25;14.25;;;;;;;0.01;83.08;100287.34;1674259;85;21550;-62
2020/12/03 02:47:24;;;;;;;18.90;13.13;;;;;;;0.00;83.12;100289.04;1647205;87;21528;-62
2020/12/03 02:49:53;;;;;;;18.42;13.65;;;;;;;0.04;83.20;100295.48;1674327;85;21080;-62
2020/12/03 02:52:23;;;;;;;19.05;13.75;;;;;;;0.05;82.98;100286.97;1647211;87;21685;-62
2020/12/03 02:54:51;;;;;;;19.05;14.05;;;;;;;0.00;83.03;100291.59;1674374;85;21339;-62
2020/12/03 02:57:21;;;;;;;21.48;14.33;;;;;;;-0.03;83.07;100291.58;1647198;87;21143;-62
2020/12/03 02:59:49;;;;;;;20.68;14.70;;;;;;;-0.02;83.18;100296.28;1674329;85;21591;-62
2020/12/03 03:02:17;;;;;;;23.15;14.43;;;;;;;-0.02;83.25;100288.19;1647143;86;22047;-61
2020/12/03 03:04:44;;;;;;;23.02;14.85;;;;;;;0.00;83.30;100292.88;1674333;85;21512;-62
2020/12/03 03:07:11;;;;;;;20.85;14.43;;;;;;;0.04;83.29;100288.67;1647214;87;21181;-63
2020/12/03 03:09:39;;;;;;;20.55;14.38;;;;;;;0.07;83.13;100285.30;1674282;85;21174;-63
2020/12/03 03:12:07;;;;;;;25.00;15.98;;;;;;;0.12;83.18;100289.64;1647213;87;21093;-63
2020/12/03 03:14:34;;;;;;;21.52;15.28;;;;;;;0.18;83.11;100291.44;1674322;85;21123;-62
2020/12/03 03:17:02;;;;;;;24.72;15.88;;;;;;;0.20;82.83;100283.37;1647208;87;21092;-62
2020/12/03 03:19:29;;;;;;;22.73;15.00;;;;;;;0.18;82.83;100285.05;1674391;85;21407;-62
2020/12/03 03:21:57;;;;;;;20.97;15.43;;;;;;;0.19;82.63;100285.06;1647130;87;21635;-61
2020/12/03 03:24:25;;;;;;;23.65;16.15;;;;;;;0.17;82.64;100277.78;1674406;85;21510;-64
2020/12/03 03:26:52;;;;;;;26.42;15.25;;;;;;;0.18;82.74;100279.92;1647208;87;21087;-61
2020/12/03 03:29:20;;;;;;;32.75;15.88;;;;;;;0.21;82.71;100280.80;1674334;85;21604;-61
2020/12/03 03:31:47;;;;;;;22.73;15.68;;;;;;;0.21;82.52;100281.22;1647158;87;21400;-63
2020/12/03 03:34:15;;;;;;;23.05;16.48;;;;;;;0.18;82.52;100278.65;1674238;85;21124;-62
2020/12/03 03:36:42;;;;;;;24.07;16.48;;;;;;;0.16;82.56;100289.27;1647198;87;21108;-63
2020/12/03 03:39:12;;;;;;;22.45;16.90;;;;;;;0.20;82.81;100285.92;1674307;85;21635;-62
2020/12/03 03:41:40;;;;;;;25.00;17.35;;;;;;;0.27;82.64;100283.86;1607757;87;21148;-61
2020/12/03 03:44:08;;;;;;;25.70;16.55;;;;;;;0.28;82.50;100283.89;1674307;85;21639;-62
2020/12/03 03:46:35;;;;;;;24.95;16.75;;;;;;;0.33;82.35;100282.26;1647145;87;21199;-62
2020/12/03 03:49:03;;;;;;;24.65;16.12;;;;;;;0.36;82.14;100282.72;1674369;85;21521;-62
2020/12/03 03:51:31;;;;;;;26.17;17.57;;;;;;;0.34;82.16;100286.95;1647189;87;21151;-62
2020/12/03 03:53:58;;;;;;;27.17;18.00;;;;;;;0.33;82.17;100292.91;1674295;85;21179;-62
2020/12/03 03:56:26;;;;;;;25.90;17.40;;;;;;;0.32;82.01;100295.03;1647177;87;21528;-62
2020/12/03 03:58:53;;;;;;;22.45;15.78;;;;;;;0.28;81.97;100290.28;1674206;85;21107;-62
2020/12/03 04:01:21;;;;;;;26.52;17.42;;;;;;;0.27;82.19;100288.98;1649401;86;21531;-62
2020/12/03 04:03:48;;;;;;;27.58;17.35;;;;;;;0.25;82.22;100284.27;1696031;84;21147;-62
2020/12/03 04:06:16;;;;;;;25.80;16.67;;;;;;;0.25;82.32;100281.28;1655289;86;21083;-62
2020/12/03 04:08:44;;;;;;;23.50;15.35;;;;;;;0.28;82.38;100288.14;1696115;84;21471;-62
2020/12/03 04:11:16;;;;;;;24.55;16.27;;;;;;;0.32;82.19;100295.03;1655173;86;21100;-63
2020/12/03 04:13:43;;;;;;;21.85;15.60;;;;;;;0.32;82.24;100294.61;1696123;84;21500;-62
2020/12/03 04:16:11;;;;;;;29.05;20.60;;;;;;;0.31;82.10;100290.33;1655236;86;21151;-63
2020/12/03 04:18:40;;;;;;;36.23;26.37;;;;;;;0.29;82.06;100290.73;1696090;84;21598;-62
2020/12/03 04:21:09;;;;;;;24.07;17.80;;;;;;;0.29;82.24;100290.73;1655326;86;21579;-62
2020/12/03 04:23:36;;;;;;;24.07;15.98;;;;;;;0.30;82.10;100286.05;1695927;84;21116;-62
2020/12/03 04:26:04;;;;;;;24.95;16.80;;;;;;;0.30;82.24;100288.61;1655205;86;21095;-62
2020/12/03 04:28:31;;;;;;;28.05;16.93;;;;;;;0.33;82.08;100293.77;1696021;84;21163;-62
2020/12/03 04:30:59;;;;;;;23.80;15.43;;;;;;;0.34;82.08;100299.33;1655214;86;21127;-62
2020/12/03 04:33:26;;;;;;;25.32;17.37;;;;;;;0.36;81.97;100295.52;1696025;84;21384;-62
2020/12/03 04:35:54;;;;;;;32.42;16.93;;;;;;;0.36;81.96;100298.07;1655171;86;21130;-62
2020/12/03 04:38:21;;;;;;;42.10;21.30;;;;;;;0.40;82.02;100301.08;1695999;84;21162;-62
2020/12/03 04:40:50;;;;;;;30.08;18.27;;;;;;;0.48;82.05;100299.91;1655208;86;21693;-62
2020/12/03 04:43:26;;;;;;;35.00;19.35;;;;;;;0.54;81.92;100302.55;1696013;84;21168;-62
2020/12/03 04:46:05;;;;;;;25.32;16.52;;;;;;;0.57;81.68;100301.31;1655257;86;21382;-62
2020/12/03 04:49:00;;;;;;;23.55;16.55;;;;;;;0.57;81.56;100301.31;1695983;84;21091;-61
2020/12/03 04:51:51;;;;;;;23.25;16.93;;;;;;;0.52;81.26;100294.00;1655034;86;21662;-62
2020/12/03 04:54:42;;;;;;;34.65;17.77;;;;;;;0.43;81.45;100292.17;1655006;86;21166;-63
2020/12/03 04:57:27;;;;;;;23.15;16.23;;;;;;;0.40;81.68;100292.58;1682848;85;21127;-63
2020/12/03 05:00:28;;;;;;;23.70;16.25;;;;;;;0.41;81.64;100286.59;1696040;84;21403;-61
2020/12/03 05:03:33;;;;;;;32.40;17.20;;;;;;;0.38;81.72;100289.14;1655033;86;21941;-62
2020/12/03 05:06:36;;;;;;;29.45;16.42;;;;;;;0.40;81.68;100289.56;1695834;84;21167;-61
2020/12/03 05:09:51;;;;;;;27.10;16.50;;;;;;;0.38;81.73;100284.87;1655248;86;21079;-61
2020/12/03 05:12:33;;;;;;;38.17;19.07;;;;;;;0.38;81.94;100287.86;1655258;86;21623;-63
2020/12/03 05:15:06;;;;;;;31.05;16.80;;;;;;;0.40;82.04;100280.61;1682891;84;21227;-63
2020/12/03 05:18:08;;;;;;;32.40;21.12;;;;;;;0.45;82.03;100272.58;1655215;86;21548;-63
2020/12/03 05:20:51;;;;;;;26.85;17.67;;;;;;;0.53;81.93;100284.20;1696118;84;21504;-63
2020/12/03 05:23:29;;;;;;;34.95;18.70;;;;;;;0.57;81.68;100280.42;1655304;85;21170;-63
2020/12/03 05:25:56;;;;;;;29.05;17.15;;;;;;;0.55;81.38;100283.80;1655258;86;21078;-63
2020/12/03 05:28:46;;;;;;;28.85;17.75;;;;;;;0.46;81.38;100272.16;1682791;84;21384;-64
2020/12/03 05:31:18;;;;;;;35.13;18.52;;;;;;;0.37;81.55;100271.64;1695811;84;21564;-63
2020/12/03 05:34:36;;;;;;;38.00;19.00;;;;;;;0.35;81.71;100265.64;1655313;86;21079;-63
2020/12/03 05:37:08;;;;;;;39.05;18.60;;;;;;;0.32;81.91;100270.30;1695962;84;21087;-63
2020/12/03 05:39:49;;;;;;;65.47;29.77;;;;;;;0.34;82.18;100276.72;1662114;85;21529;-62
2020/12/03 05:42:26;;;;;;;44.30;21.93;;;;;;;0.40;82.24;100282.34;1696097;84;21171;-63
2020/12/03 05:44:56;;;;;;;44.83;19.45;;;;;;;0.47;82.22;100286.25;1655267;86;21537;-64
2020/12/03 05:47:32;;;;;;;43.15;18.55;;;;;;;0.53;82.09;100288.89;1695092;84;21244;-64
2020/12/03 05:50:15;;;;;;;28.67;17.02;;;;;;;0.58;81.98;100296.22;1655108;86;21183;-63
2020/12/03 05:53:19;;;;;;;43.63;18.30;;;;;;;0.65;81.74;100296.70;1696403;84;21457;-63
2020/12/03 05:55:48;;;;;;;33.53;16.95;;;;;;;0.68;81.42;100304.43;1654962;85;21226;-64
2020/12/03 05:58:30;;;;;;;50.23;19.15;;;;;;;0.72;81.37;100315.58;1695000;84;21648;-64
2020/12/03 06:01:09;;;;;;;55.55;18.85;;;;;;;0.78;81.13;100317.35;1653598;86;21569;-64
2020/12/03 06:04:03;;;;;;;35.33;19.52;;;;;;;0.77;81.11;100315.21;1645953;85;21199;-64
2020/12/03 06:07:19;;;;;;;42.60;17.67;;;;;;;0.79;81.04;100319.94;1646924;87;21131;-63
2020/12/03 06:10:04;;;;;;;51.92;19.60;;;;;;;0.83;80.81;100326.78;1646825;87;21171;-62
2020/12/03 06:13:12;;;;;;;34.73;17.75;;;;;;;0.84;80.71;100327.64;1644702;87;21834;-64
2020/12/03 06:15:50;;;;;;;32.78;16.75;;;;;;;0.82;80.38;100331.47;1645352;86;21164;-66
2020/12/03 06:18:26;;;;;;;41.53;18.67;;;;;;;0.77;80.35;100339.53;1668807;85;22320;-65
2020/12/03 06:21:19;;;;;;;32.75;17.82;;;;;;;0.76;80.61;100333.98;1656828;85;21374;-64
2020/12/03 06:24:23;;;;;;;41.00;17.12;;;;;;;0.83;80.68;100336.16;1635738;85;21242;-65
2020/12/03 06:27:07;;;;;;;29.77;15.75;;;;;;;0.94;80.52;100338.45;1669272;84;21233;-64
2020/12/03 06:29:48;;;;;;;69.53;28.32;;;;;;;1.05;80.34;100331.72;1696364;84;21138;-65
2020/12/03 06:32:39;;;;;;;27.85;18.32;;;;;;;1.13;80.18;100327.97;1665836;84;21264;-64
2020/12/03 06:35:26;;;;;;;44.55;20.25;;;;;;;1.18;79.85;100326.32;1666704;84;21201;-66
2020/12/03 06:38:14;;;;;;;33.23;19.07;;;;;;;1.21;79.64;100327.19;1642699;86;21507;-66
2020/12/03 06:40:46;;;;;;;40.08;21.77;;;;;;;1.24;79.51;100331.48;1644220;85;22074;-65
2020/12/03 06:43:37;;;;;;;30.70;18.00;;;;;;;1.24;79.24;100322.09;1597354;87;21467;-64
2020/12/03 06:46:19;;;;;;;32.23;16.62;;;;;;;1.22;79.14;100328.05;1644508;87;21217;-64
2020/12/03 06:49:20;;;;;;;31.20;15.75;;;;;;;1.15;79.18;100330.98;1642272;87;21215;-66
2020/12/03 06:52:38;;;;;;;31.75;14.75;;;;;;;1.14;79.14;100330.55;1644395;86;21240;-66
2020/12/03 06:55:38;;;;;;;38.92;15.90;;;;;;;1.12;79.03;100324.97;1618753;88;21236;-64
2020/12/03 06:58:21;;;;;;;36.85;16.48;;;;;;;1.09;79.38;100332.20;1617204;88;21306;-68
2020/12/03 07:01:41;;;;;;;36.95;17.62;;;;;;;1.15;79.29;100330.98;1624000;87;21198;-62
2020/12/03 07:05:01;;;;;;;62.40;25.48;;;;;;;1.20;79.17;100324.64;1642771;87;21575;-64
2020/12/03 07:08:11;;;;;;;45.80;18.90;;;;;;;1.26;79.17;100315.70;1617649;87;22119;-65
2020/12/03 07:11:05;;;;;;;44.13;17.60;;;;;;;1.24;79.04;100317.39;1644252;87;21194;-65
2020/12/03 07:14:10;;;;;;;49.77;22.93;;;;;;;1.26;78.73;100321.69;1639070;87;21452;-66
2020/12/03 07:17:06;;;;;;;46.95;24.87;;;;;;;1.27;78.77;100320.84;1643453;87;21238;-63
2020/12/03 07:20:18;;;;;;;30.97;16.35;;;;;;;1.32;78.23;100332.01;1657999;85;21627;-67
2020/12/03 07:23:02;;;;;;;47.38;18.67;;;;;;;1.30;77.43;100330.27;1658223;86;21401;-65
2020/12/03 07:25:31;;;;;;;47.00;20.25;;;;;;;1.27;77.21;100336.22;1620115;87;21198;-66
2020/12/03 07:28:23;;;;;;;38.02;20.10;;;;;;;1.34;77.08;100339.72;1642054;87;21182;-65
2020/12/03 07:31:14;;;;;;;40.30;19.20;;;;;;;1.42;76.95;100335.50;1641101;85;21262;-69
2020/12/03 07:34:05;;;;;;;50.60;21.02;;;;;;;1.47;76.65;100330.00;1640798;87;21256;-65
2020/12/03 07:37:09;;;;;;;39.33;21.10;;;;;;;1.45;76.36;100335.95;1640822;86;21422;-63
2020/12/03 07:39:39;;;;;;;37.35;20.10;;;;;;;1.38;76.60;100332.08;1640608;85;21423;-63
2020/12/03 07:42:17;;;;;;;53.35;21.45;;;;;;;1.44;76.84;100335.52;1654605;86;21190;-68
2020/12/03 07:44:50;;;;;;;30.08;17.32;;;;;;;1.46;76.51;100328.70;1639612;87;21229;-64
2020/12/03 07:47:30;;;;;;;35.78;16.52;;;;;;;1.39;76.28;100322.69;1617108;88;21210;-69
2020/12/03 07:50:07;;;;;;;32.75;16.87;;;;;;;1.33;76.05;100319.63;1652412;85;22077;-64
2020/12/03 07:52:38;;;;;;;33.95;19.23;;;;;;;1.26;76.33;100321.69;1644442;86;21974;-64
2020/12/03 07:55:27;;;;;;;24.95;15.50;;;;;;;1.27;76.71;100319.98;1669049;85;21242;-63
2020/12/03 07:57:59;;;;;;;31.87;18.65;;;;;;;1.28;76.21;100322.56;1643985;86;21651;-64
2020/12/03 08:00:46;;;;;;;34.88;17.60;;;;;;;1.23;76.44;100316.95;1670508;85;21246;-65
2020/12/03 08:03:36;;;;;;;32.48;16.75;;;;;;;1.25;76.38;100311.42;1652493;86;21409;-66
2020/12/03 08:06:21;;;;;;;31.68;15.93;;;;;;;1.28;76.31;100308.89;1654692;86;21226;-63
2020/12/03 08:09:03;;;;;;;47.45;16.50;;;;;;;1.28;76.10;100307.61;1641181;86;21219;-63
2020/12/03 08:11:51;;;;;;;31.52;16.23;;;;;;;1.28;76.23;100311.45;1667726;84;21542;-64
2020/12/03 08:14:35;;;;;;;28.95;14.87;;;;;;;1.34;76.19;100316.23;1664147;86;21202;-62
2020/12/03 08:17:25;;;;;;;40.17;19.17;;;;;;;1.37;75.87;100316.27;1691296;84;21261;-67
2020/12/03 08:20:14;;;;;;;34.80;19.70;;;;;;;1.34;75.88;100314.09;1663938;85;21187;-64
2020/12/03 08:22:50;;;;;;;32.17;16.93;;;;;;;1.37;75.82;100316.27;1672366;84;21266;-65
2020/12/03 08:25:29;;;;;;;30.00;16.90;;;;;;;1.36;75.50;100311.12;1663616;86;21225;-66
2020/12/03 08:28:03;;;;;;;29.80;16.57;;;;;;;1.33;75.66;100304.68;1663491;86;21222;-65
2020/12/03 08:30:47;;;;;;;68.75;16.60;;;;;;;1.32;75.16;100289.72;1674348;84;21625;-64
2020/12/03 08:33:17;;;;;;;30.10;15.70;;;;;;;1.32;74.98;100287.58;1664375;85;26705;-62
2020/12/03 08:35:52;;;;;;;;;;;;;;;1.31;74.86;100289.28;1695198;84;21123;-65
2020/12/03 08:38:27;;;;;;;25.25;13.50;;;;;;;1.33;74.91;100285.45;1662705;86;20258;-63
2020/12/03 08:40:58;;;;;;;21.93;13.58;;;;;;;1.36;75.12;100286.77;1665060;86;21155;-63
2020/12/03 08:43:27;;;;;;;22.63;13.97;;;;;;;1.33;74.76;100279.91;1665315;86;21405;-66
2020/12/03 08:46:15;;;;;;;24.90;15.63;;;;;;;1.24;75.07;100283.66;1664514;86;21216;-64
2020/12/03 08:48:45;;;;;;;42.60;17.12;;;;;;;1.22;75.17;100286.62;1664916;85;21216;-64
2020/12/03 08:51:14;;;;;;;20.12;12.88;;;;;;;1.18;75.32;100278.50;1665106;84;21208;-64
2020/12/03 08:53:47;;;;;;;23.30;13.80;;;;;;;1.17;75.31;100284.89;1664988;86;21235;-65
2020/12/03 08:56:25;;;;;;;17.40;11.75;;;;;;;1.15;75.51;100278.47;1664717;86;21386;-66
2020/12/03 08:59:17;;;;;;;25.32;14.28;;;;;;;1.16;75.70;100277.63;1664922;84;21523;-64
2020/12/03 09:01:51;;;;;;;26.42;13.55;;;;;;;1.14;75.93;100273.33;1665148;84;21165;-65
2020/12/03 09:04:23;;;;;;;20.60;13.53;;;;;;;1.14;75.90;100268.20;1648127;85;21217;-64
2020/12/03 09:06:52;;;;;;;21.65;12.88;;;;;;;1.15;76.07;100264.80;1644870;87;21862;-65
2020/12/03 09:09:23;;;;;;;29.57;13.05;;;;;;;1.21;75.95;100273.80;1644760;86;21497;-67
2020/12/03 09:11:51;;;;;;;25.25;15.00;;;;;;;1.24;75.69;100272.13;1645178;87;21236;-66
2020/12/03 09:14:35;;;;;;;31.57;13.43;;;;;;;1.26;75.67;100270.86;1644913;87;21216;-66
2020/12/03 09:17:07;;;;;;;30.82;16.50;;;;;;;1.28;75.59;100273.02;1644522;87;21235;-64
2020/12/03 09:19:37;;;;;;;21.73;13.48;;;;;;;1.26;75.85;100261.47;1636794;86;21195;-65
2020/12/03 09:22:08;;;;;;;25.25;14.28;;;;;;;1.31;75.89;100264.08;1664032;85;21283;-66
2020/12/03 09:24:36;;;;;;;27.07;13.75;;;;;;;1.29;75.82;100270.89;1619884;85;21214;-64
2020/12/03 09:27:05;;;;;;;43.13;13.53;;;;;;;1.30;75.84;100263.64;1596184;87;21628;-66
2020/12/03 09:29:54;;;;;;;23.80;13.18;;;;;;;1.29;75.81;100261.92;1642446;86;21242;-66
2020/12/03 09:32:31;;;;;;;52.05;17.62;;;;;;;1.31;75.69;100260.23;1670466;84;21207;-65
2020/12/03 09:35:24;;;;;;;29.37;13.58;;;;;;;1.30;75.75;100251.69;1670077;85;21659;-68
2020/12/03 09:38:02;;;;;;;33.42;16.32;;;;;;;1.35;75.66;100245.33;1670331;85;21238;-65
2020/12/03 09:40:35;;;;;;;30.52;16.73;;;;;;;1.41;75.62;100244.49;1669621;85;21230;-64
2020/12/03 09:43:05;;;;;;;42.93;18.45;;;;;;;1.52;75.48;100249.30;1623292;87;21198;-64
2020/12/03 09:45:42;;;;;;;29.98;17.37;;;;;;;1.64;75.44;100238.69;1636217;86;21199;-67
2020/12/03 09:48:13;;;;;;;20.30;13.90;;;;;;;1.73;75.32;100240.05;1642758;86;21407;-66
2020/12/03 09:50:42;;;;;;;39.58;15.65;;;;;;;1.83;74.77;100233.67;1644004;86;21222;-65
2020/12/03 09:53:20;;;;;;;26.65;12.98;;;;;;;1.91;74.19;100231.59;1666348;85;21303;-63
2020/12/03 09:55:49;;;;;;;22.85;10.75;;;;;;;1.95;73.95;100224.78;1645318;87;21199;-63
2020/12/03 09:58:19;;;;;;;28.90;12.05;;;;;;;1.97;73.60;100232.92;1672908;85;21146;-64
2020/12/03 10:00:50;;;;;;;18.90;11.00;;;;;;;1.97;73.48;100229.08;1645862;87;21219;-66
2020/12/03 10:03:43;;;;;;;34.83;14.25;;;;;;;1.95;73.45;100220.94;1648867;85;21222;-65
2020/12/03 10:06:38;;;;;;;21.10;11.88;;;;;;;1.96;73.67;100217.09;1645074;87;21210;-63
2020/12/03 10:09:44;;;;;;;19.82;11.08;;;;;;;2.01;73.47;100206.41;1620767;87;21158;-65
2020/12/03 10:12:39;;;;;;;26.17;13.48;;;;;;;2.00;73.20;100206.40;1669922;85;21457;-64
2020/12/03 10:15:34;;;;;;;22.17;12.23;;;;;;;1.98;73.71;100206.42;1623778;88;21419;-66
2020/12/03 10:18:06;;;;;;;21.60;12.00;;;;;;;1.94;73.59;100205.97;1650428;87;21199;-65
2020/12/03 10:20:36;;;;;;;18.17;10.45;;;;;;;1.91;73.73;100199.53;1603267;88;21126;-63
2020/12/03 10:23:12;;;;;;;20.20;11.97;;;;;;;1.96;73.80;100209.83;1622982;88;21242;-64
2020/12/03 10:25:40;;;;;;;27.90;14.45;;;;;;;1.95;73.81;100199.13;1623127;88;21182;-64
2020/12/03 10:28:25;;;;;;;24.27;14.15;;;;;;;1.93;73.99;100199.55;1598224;89;21413;-63
2020/12/03 10:30:53;;;;;;;24.70;14.78;;;;;;;1.89;73.91;100199.09;1624223;88;21129;-62
2020/12/03 10:33:25;;;;;;;28.73;14.45;;;;;;;1.81;74.04;100200.32;1598022;89;21226;-63
2020/12/03 10:35:55;;;;;;;27.70;14.63;;;;;;;1.82;74.43;100200.75;1624223;88;21114;-64
2020/12/03 10:38:32;;;;;;;23.62;14.00;;;;;;;1.87;74.63;100197.80;1598109;89;21218;-64
2020/12/03 10:40:57;;;;;;;27.62;14.03;;;;;;;1.93;74.78;100185.02;1624201;88;21414;-64
2020/12/03 10:43:31;;;;;;;21.12;13.83;;;;;;;2.02;74.69;100188.89;1572587;89;21142;-64
2020/12/03 10:46:01;;;;;;;24.50;15.00;;;;;;;2.02;74.42;100189.31;1636482;86;21190;-63
2020/12/03 10:48:33;;;;;;;30.02;17.07;;;;;;;1.96;74.53;100193.16;1626219;85;21217;-63
2020/12/03 10:51:08;;;;;;;26.02;16.32;;;;;;;1.91;75.14;100190.98;1647237;87;21559;-65
2020/12/03 10:53:38;;;;;;;26.17;15.32;;;;;;;1.86;75.01;100190.95;1647179;87;21301;-64
2020/12/03 10:56:08;;;;;;;20.95;13.68;;;;;;;1.76;75.44;100195.61;1663763;85;21115;-62
2020/12/03 10:59:02;;;;;;;24.55;15.05;;;;;;;1.68;76.06;100187.87;1622384;88;21202;-63
2020/12/03 11:01:29;;;;;;;27.30;17.32;;;;;;;1.64;76.26;100191.25;1622643;88;21123;-64
2020/12/03 11:04:04;;;;;;;26.97;16.60;;;;;;;1.67;76.82;100186.15;1613269;87;21117;-64
2020/12/03 11:06:32;;;;;;;23.55;16.15;;;;;;;1.72;76.87;100181.91;1617220;88;21492;-66
2020/12/03 11:09:01;;;;;;;17.60;12.47;;;;;;;1.76;76.73;100176.80;1620311;87;21240;-64
2020/12/03 11:11:36;;;;;;;25.30;15.48;;;;;;;1.77;76.72;100164.41;1643227;87;21234;-62
2020/12/03 11:14:11;;;;;;;26.52;15.80;;;;;;;1.73;76.89;100163.53;1644686;87;21154;-64
2020/12/03 11:16:57;;;;;;;25.57;15.43;;;;;;;1.78;76.90;100164.84;1643225;87;21207;-64
2020/12/03 11:19:26;;;;;;;35.65;17.00;;;;;;;1.85;76.71;100165.29;1611939;88;21243;-63
2020/12/03 11:22:18;;;;;;;29.27;15.85;;;;;;;1.87;76.71;100167.44;1654328;84;21594;-67
2020/12/03 11:25:00;;;;;;;22.13;13.55;;;;;;;1.89;76.35;100162.75;1649368;85;21191;-63
2020/12/03 11:27:28;;;;;;;25.30;12.87;;;;;;;1.86;76.12;100152.48;1681943;84;21179;-65
2020/12/03 11:29:57;;;;;;;22.17;12.58;;;;;;;1.85;76.37;100153.33;1673425;85;22019;-64
2020/12/03 11:32:25;;;;;;;19.65;13.28;;;;;;;1.91;76.30;100156.35;1699830;84;21574;-67
2020/12/03 11:34:53;;;;;;;20.97;12.73;;;;;;;1.93;76.17;100147.81;1662549;85;21226;-62
2020/12/03 11:37:26;;;;;;;28.73;15.58;;;;;;;1.95;76.29;100151.25;1645267;87;22159;-64
2020/12/03 11:40:05;;;;;;;22.10;14.23;;;;;;;1.98;76.14;100143.99;1653706;85;21682;-64
2020/12/03 11:46:24;;;;;;;24.10;12.03;;;;;;;2.17;76.22;100141.06;1886921;76;24016;-62
2020/12/03 11:48:08;;;;;;;22.87;12.18;;;;;;;2.18;75.72;100150.48;1824563;76;21190;-68
2020/12/03 11:50:22;;;;;;;23.83;12.58;;;;;;;2.12;75.37;100147.45;1822160;77;21211;-64
2020/12/03 11:52:50;;;;;;;18.40;13.03;;;;;;;1.98;75.51;100146.56;1857355;77;21045;-64
2020/12/03 11:55:23;;;;;;;37.83;14.15;;;;;;;1.86;76.03;100153.76;1857063;76;21178;-67
2020/12/03 11:58:08;;;;;;;19.90;12.70;;;;;;;1.80;76.12;100152.44;1862175;76;21133;-64
2020/12/03 12:00:38;;;;;;;14.90;11.30;;;;;;;1.76;76.25;100151.16;1861989;77;21085;-66
2020/12/03 12:03:09;;;;;;;23.87;12.93;;;;;;;1.71;76.37;100150.70;1861163;77;21482;-67
2020/12/03 12:05:47;;;;;;;19.70;12.80;;;;;;;1.62;76.72;100148.08;1860575;76;21181;-68